Time;durP1;ratioP1;P1;durP2;ratioP2;P2;SDS_P1;SDS_P2;PMS_P1;PMS_P2;Temp;Humidity;BMP_temperature;BMP_pressure;BME280_temperature;BME280_humidity;BME280_pressure;Samples;Min_cycle;Max_cycle;Signal;HPM_P1;HPM_P2
2021/09/05 00:02:16;;;;;;;1999.90;999.90;;;;;;;11.44;47.44;101653.03;5029657;27;101108;-80
2021/09/05 00:04:45;;;;;;;1999.90;999.90;;;;;;;11.45;47.31;101644.16;5029553;27;99981;-77
2021/09/05 00:07:14;;;;;;;1999.90;999.90;;;;;;;11.48;47.28;101648.69;5035140;27;97467;-77
2021/09/05 00:09:42;;;;;;;1999.90;999.90;;;;;;;11.48;47.14;101636.28;5029815;27;96961;-78
2021/09/05 00:12:11;;;;;;;1999.90;999.90;;;;;;;11.40;47.36;101635.13;5032406;27;99443;-79
2021/09/05 00:14:39;;;;;;;1999.90;999.90;;;;;;;11.40;47.41;101634.22;5019179;27;99539;-80
2021/09/05 00:17:07;;;;;;;1999.90;999.90;;;;;;;11.42;47.38;101637.84;5031836;27;96927;-80
2021/09/05 00:19:35;;;;;;;1999.90;999.90;;;;;;;11.43;47.24;101637.00;5018766;27;96521;-79
2021/09/05 00:22:03;;;;;;;1999.90;999.90;;;;;;;11.45;47.30;101636.16;5018224;27;99390;-76
2021/09/05 00:24:33;;;;;;;1999.90;999.90;;;;;;;11.46;47.28;101638.00;5031368;27;99300;-79
2021/09/05 00:27:00;;;;;;;1999.90;999.90;;;;;;;11.47;47.27;101637.13;5032318;27;96952;-79
2021/09/05 00:29:28;;;;;;;1999.90;999.90;;;;;;;11.40;47.45;101623.56;5014650;27;97418;-77
2021/09/05 00:31:56;;;;;;;1999.90;999.90;;;;;;;11.36;47.35;101621.66;5033547;27;96986;-77
2021/09/05 00:34:24;;;;;;;1999.90;999.90;;;;;;;11.34;47.25;101634.97;5003186;27;99166;-77
2021/09/05 00:36:55;;;;;;;1999.90;999.90;;;;;;;11.25;47.42;101634.59;5033020;27;96839;-79
2021/09/05 00:39:23;;;;;;;1999.90;999.90;;;;;;;11.25;47.59;101633.72;5017347;27;96679;-80
2021/09/05 00:41:52;;;;;;;1999.90;999.90;;;;;;;11.24;47.46;101635.47;5033260;27;100597;-78
2021/09/05 00:44:20;;;;;;;1999.90;999.90;;;;;;;11.23;47.64;101628.34;5033592;27;99375;-79
2021/09/05 00:46:48;;;;;;;1999.90;999.90;;;;;;;11.21;47.53;101630.94;5015238;27;96942;-77
2021/09/05 00:49:16;;;;;;;1999.90;999.90;;;;;;;11.15;47.56;101636.09;5024484;27;96904;-79
2021/09/05 00:51:45;;;;;;;1999.90;999.90;;;;;;;11.13;47.58;101631.56;5031596;27;99241;-79
2021/09/05 00:54:19;;;;;;;1999.90;999.90;;;;;;;11.11;47.73;101631.50;5014992;27;100644;-76
2021/09/05 00:56:47;;;;;;;1999.90;999.90;;;;;;;11.13;47.79;101637.78;5030701;27;96913;-77
2021/09/05 00:59:25;;;;;;;1999.90;999.90;;;;;;;11.13;47.64;101643.13;5028516;27;98081;-77
2021/09/05 01:01:56;;;;;;;1999.90;999.90;;;;;;;11.12;47.86;101645.75;5047456;27;99986;-79
2021/09/05 01:04:25;;;;;;;1999.90;999.90;;;;;;;11.11;47.59;101649.25;5013368;27;99639;-79
2021/09/05 01:06:54;;;;;;;1999.90;999.90;;;;;;;11.12;47.69;101649.28;5010991;27;96762;-79
2021/09/05 01:09:22;;;;;;;1999.90;999.90;;;;;;;11.15;47.62;101651.16;5029121;27;96955;-79
2021/09/05 01:11:50;;;;;;;1999.90;999.90;;;;;;;11.15;47.59;101645.81;5029914;27;100509;-79
2021/09/05 01:14:19;;;;;;;1999.90;999.90;;;;;;;11.15;47.52;101648.50;5037065;27;98795;-79
2021/09/05 01:16:49;;;;;;;1999.90;999.90;;;;;;;11.13;47.47;101642.22;5011157;27;97165;-80
2021/09/05 01:19:35;;;;;;;1999.90;999.90;;;;;;;11.10;47.46;101643.00;5030509;27;97134;-79
2021/09/05 01:22:33;;;;;;;1999.90;999.90;;;;;;;11.03;47.72;101650.78;5027581;27;99544;-80
2021/09/05 01:25:19;;;;;;;1999.90;999.90;;;;;;;10.98;47.60;101647.94;5032524;27;99395;-79
2021/09/05 01:28:09;;;;;;;1999.90;999.90;;;;;;;10.95;47.77;101658.50;5031077;27;96991;-79
2021/09/05 01:31:09;;;;;;;1999.90;999.90;;;;;;;10.92;47.76;101665.50;5033206;27;96994;-78
2021/09/05 01:34:04;;;;;;;1999.90;999.90;;;;;;;10.94;47.91;101655.78;5017544;27;100704;-78
2021/09/05 01:36:52;;;;;;;1999.90;999.90;;;;;;;10.95;48.00;101654.94;5032666;27;102035;-78
2021/09/05 01:39:42;;;;;;;1999.90;999.90;;;;;;;10.94;47.66;101658.47;5003284;27;96900;-78
2021/09/05 01:42:43;;;;;;;1999.90;999.90;;;;;;;10.83;48.14;101654.53;4996998;27;99205;-78
2021/09/05 01:45:44;;;;;;;1999.90;999.90;;;;;;;10.78;47.79;101657.00;5032108;27;100684;-78
2021/09/05 01:48:31;;;;;;;1999.90;999.90;;;;;;;10.72;48.28;101655.91;5033491;27;99605;-79
2021/09/05 01:51:17;;;;;;;1999.90;999.90;;;;;;;10.70;48.23;101661.16;5029365;27;96726;-78
2021/09/05 01:54:04;;;;;;;1999.90;999.90;;;;;;;10.66;48.28;101659.28;5034157;27;96733;-78
2021/09/05 01:56:55;;;;;;;1999.90;999.90;;;;;;;10.65;48.39;101664.53;5023362;27;99753;-78
2021/09/05 01:59:41;;;;;;;1999.90;999.90;;;;;;;10.62;48.35;101661.75;5027616;27;99856;-79
2021/09/05 02:02:45;;;;;;;1999.90;999.90;;;;;;;10.60;48.29;101663.47;5032339;27;97441;-79
2021/09/05 02:05:25;;;;;;;1999.90;999.90;;;;;;;10.58;48.62;101663.41;5031636;27;97311;-78
2021/09/05 02:08:16;;;;;;;1999.90;999.90;;;;;;;10.57;48.44;101666.03;5022397;27;97724;-78
2021/09/05 02:11:08;;;;;;;1999.90;999.90;;;;;;;10.56;48.51;101666.84;5049494;27;100162;-78
2021/09/05 02:13:56;;;;;;;1999.90;999.90;;;;;;;10.56;48.60;101664.19;5010685;27;97051;-78
2021/09/05 02:16:41;;;;;;;1999.90;999.90;;;;;;;10.57;48.64;101672.25;5016549;27;96844;-77
2021/09/05 02:19:29;;;;;;;1999.90;999.90;;;;;;;10.56;48.42;101662.44;5032071;27;100811;-78
2021/09/05 02:22:20;;;;;;;1999.90;999.90;;;;;;;10.55;48.57;101671.31;5032433;27;100208;-78
2021/09/05 02:25:31;;;;;;;1999.90;999.90;;;;;;;10.47;48.68;101677.19;5036631;27;97088;-79
2021/09/05 02:28:06;;;;;;;1999.90;999.90;;;;;;;10.26;48.86;101677.28;5034883;27;96786;-79
2021/09/05 02:30:54;;;;;;;1999.90;999.90;;;;;;;10.15;49.12;101668.03;5029601;27;101043;-79
2021/09/05 02:33:45;;;;;;;1999.90;999.90;;;;;;;10.05;49.35;101677.41;5034164;27;99212;-78
2021/09/05 02:36:34;;;;;;;1999.90;999.90;;;;;;;9.98;49.42;101674.44;5048277;27;96890;-78
2021/09/05 02:39:28;;;;;;;1999.90;999.90;;;;;;;9.91;49.61;101678.66;5034879;27;96974;-77
2021/09/05 02:42:11;;;;;;;1999.90;999.90;;;;;;;9.87;49.67;101682.03;5031096;27;100912;-78
2021/09/05 02:44:58;;;;;;;1999.90;999.90;;;;;;;9.85;49.77;101685.47;5031798;27;98375;-78
2021/09/05 02:47:46;;;;;;;1999.90;999.90;;;;;;;9.86;49.55;101679.31;5030883;27;97770;-79
2021/09/05 02:50:37;;;;;;;1999.90;999.90;;;;;;;9.90;49.60;101684.78;5014530;27;96855;-77
2021/09/05 02:53:32;;;;;;;1999.90;999.90;;;;;;;9.96;49.41;101687.69;5030395;27;100314;-78
2021/09/05 02:56:38;;;;;;;1999.90;999.90;;;;;;;9.97;49.32;101689.50;5014203;28;98938;-78
2021/09/05 02:59:34;;;;;;;1999.90;999.90;;;;;;;10.00;49.40;101678.06;4995935;28;96871;-78
2021/09/05 03:02:21;;;;;;;1999.90;999.90;;;;;;;10.01;49.20;101687.88;5026331;27;96843;-79
2021/09/05 03:05:11;;;;;;;1999.90;999.90;;;;;;;10.02;49.29;101693.25;5033493;27;99354;-77
2021/09/05 03:07:57;;;;;;;1999.90;999.90;;;;;;;10.02;49.13;101685.28;5016865;27;100360;-79
2021/09/05 03:10:45;;;;;;;1999.90;999.90;;;;;;;10.03;49.15;101683.50;5015840;27;96944;-78
2021/09/05 03:13:32;;;;;;;1999.90;999.90;;;;;;;9.97;49.22;101680.63;5031432;27;97258;-77
2021/09/05 03:16:20;;;;;;;1999.90;999.90;;;;;;;9.92;49.35;101680.44;5030293;27;99595;-79
2021/09/05 03:19:07;;;;;;;1999.90;999.90;;;;;;;9.86;49.37;101676.66;5029669;27;96806;-77
2021/09/05 03:21:55;;;;;;;1999.90;999.90;;;;;;;9.85;49.42;101672.16;5032018;27;96817;-77
2021/09/05 03:24:42;;;;;;;1999.90;999.90;;;;;;;9.87;49.46;101673.13;5016588;27;96910;-78
2021/09/05 03:27:30;;;;;;;1999.90;999.90;;;;;;;9.88;49.39;101674.97;5034565;27;97953;-78
2021/09/05 03:30:17;;;;;;;1999.90;999.90;;;;;;;9.91;49.43;101672.41;5032430;27;96916;-77
2021/09/05 03:33:23;;;;;;;1999.90;999.90;;;;;;;9.92;49.22;101672.47;5021031;27;97030;-78
2021/09/05 03:36:30;;;;;;;1999.90;999.90;;;;;;;9.94;49.22;101672.50;5013685;27;96788;-77
2021/09/05 03:39:18;;;;;;;1999.90;999.90;;;;;;;9.95;49.14;101680.59;5014058;27;99575;-79
2021/09/05 03:42:03;;;;;;;1999.90;999.90;;;;;;;9.95;49.15;101679.66;5027096;27;98235;-76
2021/09/05 03:44:52;;;;;;;1999.90;999.90;;;;;;;9.94;49.11;101681.41;5031027;27;96912;-78
2021/09/05 03:47:40;;;;;;;1999.90;999.90;;;;;;;9.96;49.05;101684.13;5028793;27;97553;-78
2021/09/05 03:50:42;;;;;;;1999.90;999.90;;;;;;;9.91;49.17;101678.66;5014302;27;99675;-78
2021/09/05 03:53:11;;;;;;;1999.90;999.90;;;;;;;9.92;49.52;101684.84;5030685;27;96876;-76
2021/09/05 03:55:40;;;;;;;1999.90;999.90;;;;;;;9.90;49.21;101690.09;5014532;27;96618;-78
2021/09/05 03:58:08;;;;;;;1999.90;999.90;;;;;;;9.89;49.11;101690.97;5014481;27;96823;-78
2021/09/05 04:00:39;;;;;;;1999.90;999.90;;;;;;;9.90;49.07;101686.56;5027833;27;98201;-80
2021/09/05 04:03:10;;;;;;;1999.90;999.90;;;;;;;9.89;49.18;101695.38;5045488;27;97488;-78
2021/09/05 04:05:39;;;;;;;1999.90;999.90;;;;;;;9.87;49.22;101687.34;5044363;27;96662;-78
2021/09/05 04:08:15;;;;;;;1999.90;999.90;;;;;;;9.89;49.26;101685.66;5026833;27;97251;-80
2021/09/05 04:10:44;;;;;;;1999.90;999.90;;;;;;;9.87;49.13;101687.34;5033061;27;97650;-78
2021/09/05 04:13:13;;;;;;;1999.90;999.90;;;;;;;9.85;49.23;101685.47;5030474;27;97961;-77
2021/09/05 04:15:43;;;;;;;1999.90;999.90;;;;;;;9.84;49.22;101681.91;5029010;27;96838;-79
2021/09/05 04:18:11;;;;;;;1999.90;999.90;;;;;;;9.82;49.20;101682.69;5017647;27;97088;-76
2021/09/05 04:20:39;;;;;;;1999.90;999.90;;;;;;;9.72;49.29;101675.19;5033275;27;99830;-78
2021/09/05 04:23:07;;;;;;;1999.90;999.90;;;;;;;9.63;49.45;101686.38;5023953;27;99323;-76
2021/09/05 04:25:35;;;;;;;1999.90;999.90;;;;;;;9.55;49.65;101689.59;5034608;27;97038;-78
2021/09/05 04:28:03;;;;;;;1999.90;999.90;;;;;;;9.51;49.63;101685.00;5014963;27;97245;-77
2021/09/05 04:30:31;;;;;;;1999.90;999.90;;;;;;;9.51;49.67;101688.56;5011456;27;99284;-77
2021/09/05 04:33:00;;;;;;;1999.90;999.90;;;;;;;9.50;49.89;101686.75;5030751;27;100534;-76
2021/09/05 04:35:28;;;;;;;1999.90;999.90;;;;;;;9.52;49.74;101693.03;5014731;27;97272;-77
2021/09/05 04:37:56;;;;;;;1999.90;999.90;;;;;;;9.50;49.73;101699.16;5014763;27;97156;-78
2021/09/05 04:40:24;;;;;;;1999.90;999.90;;;;;;;9.50;49.81;101704.47;5040454;27;97604;-77
2021/09/05 04:42:52;;;;;;;1999.90;999.90;;;;;;;9.50;49.67;101705.34;5033944;27;96775;-77
2021/09/05 04:45:20;;;;;;;1999.90;999.90;;;;;;;9.50;49.70;101707.13;5013923;27;96947;-77
2021/09/05 04:47:49;;;;;;;1999.90;999.90;;;;;;;9.50;49.59;101710.66;5014583;27;96774;-79
2021/09/05 04:50:19;;;;;;;1999.90;999.90;;;;;;;9.51;49.45;101709.84;5014443;27;98663;-78
2021/09/05 04:52:47;;;;;;;1999.90;999.90;;;;;;;9.50;49.59;101709.78;5032425;27;99302;-76
2021/09/05 04:55:15;;;;;;;1999.90;999.90;;;;;;;9.49;49.68;101719.50;5033411;27;96702;-79
2021/09/05 04:57:42;;;;;;;1999.90;999.90;;;;;;;9.48;49.59;101717.66;5034120;27;97502;-77
2021/09/05 05:00:11;;;;;;;1999.90;999.90;;;;;;;9.46;49.68;101723.75;5036738;27;99375;-76
2021/09/05 05:02:39;;;;;;;1999.90;999.90;;;;;;;9.47;49.62;101730.84;5053931;27;97037;-79
2021/09/05 05:05:09;;;;;;;1999.90;999.90;;;;;;;9.44;49.61;101741.38;5035633;27;96777;-77
2021/09/05 05:07:38;;;;;;;1999.90;999.90;;;;;;;9.42;49.65;101740.38;5036221;27;97164;-78
2021/09/05 05:10:07;;;;;;;1999.90;999.90;;;;;;;9.38;49.88;101736.72;5017558;27;99909;-76
2021/09/05 05:12:35;;;;;;;1999.90;999.90;;;;;;;9.38;49.78;101733.13;5024885;27;99360;-77
2021/09/05 05:15:03;;;;;;;1999.90;999.90;;;;;;;9.38;49.94;101736.72;5032131;27;96876;-77
2021/09/05 05:17:31;;;;;;;1999.90;999.90;;;;;;;9.39;50.01;101741.16;5015840;27;96855;-78
2021/09/05 05:19:59;;;;;;;1999.90;999.90;;;;;;;9.41;50.05;101746.56;5032649;27;98805;-78
2021/09/05 05:22:28;;;;;;;1999.90;999.90;;;;;;;9.42;50.21;101746.63;5034807;27;98766;-78
2021/09/05 05:24:57;;;;;;;1999.90;999.90;;;;;;;9.43;50.13;101750.16;5015290;27;96937;-80
2021/09/05 05:27:25;;;;;;;1999.90;999.90;;;;;;;9.44;50.33;101754.66;5031882;27;96761;-78
2021/09/05 05:29:53;;;;;;;1999.90;999.90;;;;;;;9.45;50.30;101749.38;5034697;27;99733;-77
2021/09/05 05:32:22;;;;;;;1999.90;999.90;;;;;;;9.46;50.49;101745.00;5034483;27;99575;-79
2021/09/05 05:34:50;;;;;;;1999.90;999.90;;;;;;;9.47;50.44;101753.06;5030770;27;96820;-78
2021/09/05 05:37:18;;;;;;;1999.90;999.90;;;;;;;9.48;50.45;101753.97;5013988;27;97015;-79
2021/09/05 05:39:46;;;;;;;1999.90;999.90;;;;;;;9.51;50.56;101760.31;5031386;27;100853;-78
2021/09/05 05:42:15;;;;;;;1999.90;999.90;;;;;;;9.51;50.66;101752.34;5030280;27;100791;-78
2021/09/05 05:44:43;;;;;;;1999.90;999.90;;;;;;;9.49;50.71;101751.38;5027842;27;96838;-79
2021/09/05 05:47:11;;;;;;;1999.90;999.90;;;;;;;9.51;50.68;101755.00;5035731;27;96977;-78
2021/09/05 05:49:43;;;;;;;1999.90;999.90;;;;;;;9.49;51.21;101754.03;5033759;27;97085;-78
2021/09/05 05:52:11;;;;;;;1999.90;999.90;;;;;;;9.46;50.99;101761.84;5031579;27;97889;-78
2021/09/05 05:54:39;;;;;;;1999.90;999.90;;;;;;;9.38;50.85;101752.66;5014662;27;96923;-76
2021/09/05 05:57:07;;;;;;;1999.90;999.90;;;;;;;9.35;51.64;101762.25;5034135;27;97196;-80
2021/09/05 05:59:36;;;;;;;1999.90;999.90;;;;;;;9.31;51.54;101760.28;5012772;27;100163;-77
2021/09/05 06:02:04;;;;;;;1999.90;999.90;;;;;;;9.28;51.55;101757.53;5033186;27;98861;-78
2021/09/05 06:04:32;;;;;;;1999.90;999.90;;;;;;;9.26;51.74;101752.16;5032015;27;96800;-79
2021/09/05 06:07:01;;;;;;;1999.90;999.90;;;;;;;9.24;51.83;101759.13;5028115;27;96833;-78
2021/09/05 06:09:29;;;;;;;1999.90;999.90;;;;;;;9.19;52.31;101760.66;5032101;27;97323;-77
2021/09/05 06:11:56;;;;;;;1999.90;999.90;;;;;;;9.19;52.16;101771.28;5030290;27;99588;-79
2021/09/05 06:14:24;;;;;;;1999.90;999.90;;;;;;;9.19;52.13;101773.94;5014283;27;96945;-79
2021/09/05 06:16:53;;;;;;;1999.90;999.90;;;;;;;9.20;52.35;101775.78;5014019;27;97052;-76
2021/09/05 06:19:21;;;;;;;1999.90;999.90;;;;;;;9.16;52.41;101777.41;5012489;27;99936;-77
2021/09/05 06:21:49;;;;;;;1999.90;999.90;;;;;;;9.13;52.73;101776.38;5031361;27;99604;-80
2021/09/05 06:24:17;;;;;;;1999.90;999.90;;;;;;;9.12;52.38;101785.16;5027949;27;96745;-77
2021/09/05 06:26:45;;;;;;;1999.90;999.90;;;;;;;9.10;52.95;101786.84;5013216;27;96903;-76
2021/09/05 06:29:13;;;;;;;1999.90;999.90;;;;;;;9.06;53.07;101782.25;5029923;27;99464;-79
2021/09/05 06:31:41;;;;;;;1999.90;999.90;;;;;;;9.01;53.09;101775.81;5027852;27;99505;-79
2021/09/05 06:34:11;;;;;;;1999.90;999.90;;;;;;;9.06;52.97;101779.59;5031709;27;96991;-79
2021/09/05 06:36:38;;;;;;;1999.90;999.90;;;;;;;9.15;53.05;101782.66;5030079;27;96788;-79
2021/09/05 06:39:06;;;;;;;1999.90;999.90;;;;;;;9.20;52.94;101779.34;5012090;27;99479;-78
2021/09/05 06:41:34;;;;;;;1999.90;999.90;;;;;;;9.29;52.86;101781.47;5037388;27;98640;-79
2021/09/05 06:44:02;;;;;;;1999.90;999.90;;;;;;;9.36;52.89;101786.19;5016064;27;96844;-78
2021/09/05 06:46:31;;;;;;;1999.90;999.90;;;;;;;9.46;52.70;101791.06;5034593;27;96815;-78
2021/09/05 06:48:59;;;;;;;1999.90;999.90;;;;;;;9.51;52.72;101791.28;5036771;27;98494;-79
2021/09/05 06:51:28;;;;;;;1999.90;999.90;;;;;;;9.55;52.77;101791.50;5048020;27;97802;-78
2021/09/05 06:53:56;;;;;;;1999.90;999.90;;;;;;;9.61;52.55;101791.72;5011578;27;96794;-77
2021/09/05 06:56:24;;;;;;;1999.90;999.90;;;;;;;9.62;52.59;101790.88;5012065;27;97064;-79
2021/09/05 06:58:52;;;;;;;1999.90;999.90;;;;;;;9.58;52.76;101798.66;5009748;27;97074;-79
2021/09/05 07:01:20;;;;;;;1999.90;999.90;;;;;;;9.55;52.98;101795.88;5029576;27;100325;-76
2021/09/05 07:03:49;;;;;;;1999.90;999.90;;;;;;;9.56;53.12;101790.63;5011586;27;96837;-78
2021/09/05 07:06:17;;;;;;;1999.90;999.90;;;;;;;9.61;53.05;101794.38;5018605;27;97046;-76
2021/09/05 07:08:46;;;;;;;1999.90;999.90;;;;;;;9.69;52.96;101797.34;5039906;27;96931;-77
2021/09/05 07:11:15;;;;;;;1999.90;999.90;;;;;;;9.76;52.92;101808.28;5011265;27;99172;-78
2021/09/05 07:13:43;;;;;;;1999.90;999.90;;;;;;;9.83;52.69;101806.78;5008020;27;96835;-77
2021/09/05 07:16:11;;;;;;;1999.90;999.90;;;;;;;9.91;52.73;101806.25;5006155;27;97089;-78
2021/09/05 07:18:40;;;;;;;1999.90;999.90;;;;;;;9.96;52.72;101809.09;5009623;27;99491;-77
2021/09/05 07:21:08;;;;;;;1999.90;999.90;;;;;;;9.99;52.73;101810.13;5037399;27;99188;-77
2021/09/05 07:23:36;;;;;;;1999.90;999.90;;;;;;;10.07;52.66;101807.75;5028879;27;97026;-77
2021/09/05 07:26:05;;;;;;;1999.90;999.90;;;;;;;10.10;52.64;101815.88;5031504;27;96877;-78
2021/09/05 07:28:35;;;;;;;1999.90;999.90;;;;;;;10.14;52.50;101816.03;5015299;27;98504;-78
2021/09/05 07:31:04;;;;;;;1999.90;999.90;;;;;;;10.17;52.55;101816.16;5030243;27;99358;-77
2021/09/05 07:33:32;;;;;;;1999.90;999.90;;;;;;;10.23;52.54;101817.28;5032133;27;97010;-77
2021/09/05 07:36:02;;;;;;;1999.90;999.90;;;;;;;10.27;52.55;101821.84;5033565;27;96848;-76
2021/09/05 07:38:30;;;;;;;1999.90;999.90;;;;;;;10.30;52.53;101822.88;5027027;27;99772;-78
2021/09/05 07:40:58;;;;;;;1999.90;999.90;;;;;;;10.36;52.54;101828.41;5030930;27;97287;-77
2021/09/05 07:43:27;;;;;;;1999.90;999.90;;;;;;;10.40;52.54;101829.44;5032123;27;97251;-76
2021/09/05 07:45:55;;;;;;;1999.90;999.90;;;;;;;10.44;52.73;101831.41;5030786;27;96841;-79
2021/09/05 07:48:23;;;;;;;1999.90;999.90;;;;;;;10.48;52.32;101834.28;5028047;27;97807;-78
2021/09/05 07:50:51;;;;;;;1999.90;999.90;;;;;;;10.52;52.35;101829.97;5017214;27;101289;-78
2021/09/05 07:53:19;;;;;;;1999.90;999.90;;;;;;;10.53;52.38;101837.09;5043327;27;97372;-79
2021/09/05 07:55:48;;;;;;;1999.90;999.90;;;;;;;10.56;52.42;101837.19;5015182;27;96921;-79
2021/09/05 07:58:16;;;;;;;1999.90;999.90;;;;;;;10.58;52.46;101846.16;5032245;27;98115;-79
2021/09/05 08:00:45;;;;;;;1999.90;999.90;;;;;;;10.60;52.53;101834.72;5026898;27;101383;-79
2021/09/05 08:03:13;;;;;;;1999.90;999.90;;;;;;;10.64;52.45;101843.72;5026950;27;97712;-80
2021/09/05 08:05:41;;;;;;;1999.90;999.90;;;;;;;10.67;52.25;101842.09;5017130;27;96865;-79
2021/09/05 08:08:09;;;;;;;1999.90;999.90;;;;;;;10.70;52.29;101846.63;5037408;27;99447;-79
2021/09/05 08:10:38;;;;;;;1999.90;999.90;;;;;;;10.73;52.35;101847.66;5031238;27;99276;-80
2021/09/05 08:13:06;;;;;;;1999.90;999.90;;;;;;;10.74;52.35;101841.47;5031224;27;96784;-80
2021/09/05 08:15:34;;;;;;;1999.90;999.90;;;;;;;10.79;52.27;101847.88;5031269;27;97347;-79
2021/09/05 08:18:03;;;;;;;1999.90;999.90;;;;;;;10.83;52.14;101854.22;5030707;27;98245;-79
2021/09/05 08:20:31;;;;;;;1999.90;999.90;;;;;;;10.86;52.13;101852.59;5029870;27;98048;-79
2021/09/05 08:22:59;;;;;;;1999.90;999.90;;;;;;;10.81;52.34;101854.16;5031603;27;96836;-80
2021/09/05 08:25:27;;;;;;;1999.90;999.90;;;;;;;10.90;52.26;101861.59;5028425;27;97318;-80
2021/09/05 08:27:55;;;;;;;1999.90;999.90;;;;;;;10.94;52.10;101874.19;5010937;27;100352;-79
2021/09/05 08:30:23;;;;;;;1999.90;999.90;;;;;;;10.98;52.06;101869.00;5031731;27;98113;-80
2021/09/05 08:32:51;;;;;;;1999.90;999.90;;;;;;;11.04;51.87;101870.97;5014113;27;96787;-78
2021/09/05 08:35:20;;;;;;;1999.90;999.90;;;;;;;11.07;52.06;101877.31;5017368;27;96981;-78
2021/09/05 08:37:48;;;;;;;1999.90;999.90;;;;;;;11.14;51.96;101878.47;5034716;27;99214;-78
2021/09/05 08:40:17;;;;;;;1999.90;999.90;;;;;;;11.20;51.59;101884.00;5033730;27;100961;-79
2021/09/05 08:42:46;;;;;;;1999.90;999.90;;;;;;;11.24;51.59;101875.28;5019408;27;96866;-78
2021/09/05 08:45:14;;;;;;;1999.90;999.90;;;;;;;11.27;51.79;101878.03;5037350;27;97144;-78
2021/09/05 08:47:42;;;;;;;1999.90;999.90;;;;;;;11.31;51.68;101888.00;5037468;27;97738;-78
2021/09/05 08:50:11;;;;;;;1999.90;999.90;;;;;;;11.32;51.59;101878.25;5051488;27;99155;-78
2021/09/05 08:52:40;;;;;;;1999.90;999.90;;;;;;;11.33;51.63;101888.94;5039423;27;97291;-77
2021/09/05 08:55:09;;;;;;;1999.90;999.90;;;;;;;11.37;51.50;101887.31;5030951;27;96927;-76
2021/09/05 08:57:37;;;;;;;1999.90;999.90;;;;;;;11.40;51.68;101888.31;5031111;27;100892;-77
2021/09/05 09:00:06;;;;;;;1999.90;999.90;;;;;;;11.43;51.37;101884.88;5044104;27;97814;-77
2021/09/05 09:02:46;;;;;;;1999.90;999.90;;;;;;;11.38;51.63;101895.34;5018633;27;96831;-77
2021/09/05 09:05:30;;;;;;;1999.90;999.90;;;;;;;11.25;52.15;101892.16;5033890;27;96689;-77
2021/09/05 09:08:02;;;;;;;1999.90;999.90;;;;;;;11.13;51.98;101892.63;5014961;27;99621;-78
2021/09/05 09:10:30;;;;;;;1999.90;999.90;;;;;;;11.01;51.94;101890.41;5033818;27;98962;-77
2021/09/05 09:12:58;;;;;;;1999.90;999.90;;;;;;;11.00;52.30;101895.69;5013215;27;96792;-77
2021/09/05 09:15:28;;;;;;;1999.90;999.90;;;;;;;11.07;52.01;101889.72;5017760;27;96669;-78
2021/09/05 09:17:58;;;;;;;1999.90;999.90;;;;;;;11.13;51.91;101890.88;5050360;27;101049;-77
2021/09/05 09:20:40;;;;;;;1999.90;999.90;;;;;;;11.15;52.34;101891.84;5035344;27;99265;-78
2021/09/05 09:23:12;;;;;;;1999.90;999.90;;;;;;;11.16;52.09;101887.41;5032676;27;97276;-77
2021/09/05 09:25:54;;;;;;;1999.90;999.90;;;;;;;11.15;52.08;101885.59;5034828;27;96893;-77
2021/09/05 09:28:24;;;;;;;1999.90;999.90;;;;;;;11.14;51.78;101890.00;5016943;27;100677;-77
2021/09/05 09:30:52;;;;;;;1999.90;999.90;;;;;;;11.18;51.74;101891.03;5032883;27;99177;-78
2021/09/05 09:33:22;;;;;;;1999.90;999.90;;;;;;;11.24;51.52;101891.25;5031047;27;96985;-78
2021/09/05 09:35:51;;;;;;;1999.90;999.90;;;;;;;11.32;51.56;101895.16;5014296;27;96769;-78
2021/09/05 09:38:22;;;;;;;1999.90;999.90;;;;;;;11.38;51.52;101889.13;5034091;27;97527;-77
2021/09/05 09:40:51;;;;;;;1999.90;999.90;;;;;;;11.45;51.07;101892.03;5018354;27;99151;-78
2021/09/05 09:43:20;;;;;;;1999.90;999.90;;;;;;;11.50;51.23;101887.81;5013485;27;97206;-78
2021/09/05 09:45:50;;;;;;;1999.90;999.90;;;;;;;11.54;50.93;101876.41;5035018;27;97246;-77
2021/09/05 09:48:26;;;;;;;1999.90;999.90;;;;;;;11.60;51.05;101879.25;5015228;27;99876;-78
2021/09/05 09:51:01;;;;;;;1999.90;999.90;;;;;;;11.68;50.90;101880.44;5019092;27;99163;-77
2021/09/05 09:53:30;;;;;;;1999.90;999.90;;;;;;;11.76;50.57;101888.69;5035394;27;97157;-76
2021/09/05 09:55:58;;;;;;;1999.90;999.90;;;;;;;11.81;50.44;101877.31;5032993;27;96837;-77
2021/09/05 09:58:26;;;;;;;1999.90;999.90;;;;;;;11.84;50.53;101881.84;5031915;27;100675;-76
2021/09/05 10:00:55;;;;;;;1999.90;999.90;;;;;;;11.88;50.37;101879.34;5031556;27;100050;-76
2021/09/05 10:03:24;;;;;;;1999.90;999.90;;;;;;;11.96;50.60;101871.59;5016998;27;96849;-77
2021/09/05 10:05:54;;;;;;;1999.90;999.90;;;;;;;12.03;50.07;101871.84;5032510;27;97153;-76
2021/09/05 10:08:22;;;;;;;1999.90;999.90;;;;;;;12.09;49.79;101874.69;5031249;27;100546;-77
2021/09/05 10:10:54;;;;;;;1999.90;999.90;;;;;;;12.15;50.06;101863.31;5036838;27;98108;-78
2021/09/05 10:13:26;;;;;;;1999.90;999.90;;;;;;;12.22;49.92;101869.81;5030479;27;98192;-77
2021/09/05 10:15:54;;;;;;;1999.90;999.90;;;;;;;12.23;49.75;101863.59;5030385;27;96965;-76
2021/09/05 10:18:22;;;;;;;1999.90;999.90;;;;;;;12.23;49.77;101868.94;5041765;27;101253;-77
2021/09/05 10:20:50;;;;;;;1999.90;999.90;;;;;;;12.27;49.95;101863.75;5034532;27;100113;-77
2021/09/05 10:23:29;;;;;;;1999.90;999.90;;;;;;;12.32;49.79;101870.13;5034383;27;96784;-76
2021/09/05 10:26:05;;;;;;;1999.90;999.90;;;;;;;12.37;49.83;101867.59;5050753;27;96833;-77
2021/09/05 10:28:35;;;;;;;1999.90;999.90;;;;;;;12.44;49.58;101866.91;5017726;27;99525;-77
2021/09/05 10:31:03;;;;;;;1999.90;999.90;;;;;;;12.49;49.51;101866.19;5052694;27;100028;-76
2021/09/05 10:33:32;;;;;;;1999.90;999.90;;;;;;;12.56;49.28;101867.31;5037852;27;96741;-77
2021/09/05 10:36:09;;;;;;;1999.90;999.90;;;;;;;12.62;49.22;101867.50;5038949;27;96756;-76
2021/09/05 10:38:39;;;;;;;1999.90;999.90;;;;;;;12.66;49.07;101861.38;5020970;27;99629;-79
2021/09/05 10:41:13;;;;;;;1999.90;999.90;;;;;;;12.70;49.08;101856.19;5021008;27;99397;-76
2021/09/05 10:44:03;;;;;;;1999.90;999.90;;;;;;;12.77;48.87;101850.16;5038097;27;96924;-78
2021/09/05 10:46:33;;;;;;;1999.90;999.90;;;;;;;12.85;48.71;101856.63;5036955;27;96900;-77
2021/09/05 10:49:02;;;;;;;1999.90;999.90;;;;;;;12.90;48.87;101856.75;5038073;27;97781;-76
2021/09/05 10:51:31;;;;;;;1999.90;999.90;;;;;;;12.96;48.78;101864.94;5017589;27;98644;-77
2021/09/05 10:54:00;;;;;;;1999.90;999.90;;;;;;;12.97;48.66;101859.63;5020473;27;96849;-77
2021/09/05 10:56:32;;;;;;;1999.90;999.90;;;;;;;12.99;48.51;101854.31;5049641;27;96879;-77
2021/09/05 10:59:03;;;;;;;1999.90;999.90;;;;;;;12.98;48.28;101855.22;5037563;27;98066;-78
2021/09/05 11:01:33;;;;;;;1999.90;999.90;;;;;;;12.96;48.18;101854.25;5017845;27;96880;-77
2021/09/05 11:04:30;;;;;;;1999.90;999.90;;;;;;;13.00;48.00;101858.88;5014157;27;97200;-78
2021/09/05 11:07:03;;;;;;;1999.90;999.90;;;;;;;13.06;48.16;101857.25;5032151;27;96862;-78
2021/09/05 11:09:46;;;;;;;1999.90;999.90;;;;;;;13.10;47.64;101850.22;5014810;27;99952;-78
2021/09/05 11:12:22;;;;;;;1999.90;999.90;;;;;;;13.18;47.91;101854.03;5032926;27;98422;-78
2021/09/05 11:15:02;;;;;;;1999.90;999.90;;;;;;;13.23;47.71;101855.06;5030880;27;96829;-77
2021/09/05 11:17:32;;;;;;;1999.90;999.90;;;;;;;13.31;47.57;101849.91;5029989;27;96595;-78
2021/09/05 11:20:03;;;;;;;1999.90;999.90;;;;;;;13.37;47.47;101847.41;5010173;27;98580;-79